Time;durP1;ratioP1;P1;durP2;ratioP2;P2;SDS_P1;SDS_P2;PMS_P1;PMS_P2;Temp;Humidity;BMP_temperature;BMP_pressure;BME280_temperature;BME280_humidity;BME280_pressure;Samples;Min_cycle;Max_cycle;Signal;HPM_P1;HPM_P2
2021/12/25 00:00:23;;;;;;;47.50;31.60;;;;;;;;;;2108991;28;20046;-44
2021/12/25 00:01:25;;;;;;;49.55;32.72;;;;;;;;;;2114832;28;20307;-44
2021/12/25 00:02:27;;;;;;;45.28;30.58;;;;;;;;;;2109141;28;20043;-44
2021/12/25 00:03:28;;;;;;;44.67;31.48;;;;;;;;;;2108369;28;20121;-44
2021/12/25 00:04:29;;;;;;;43.50;29.80;;;;;;;;;;2106502;28;20131;-44
2021/12/25 00:05:31;;;;;;;51.10;32.75;;;;;;;;;;2106046;28;20040;-44
2021/12/25 00:06:31;;;;;;;45.47;29.83;;;;;;;;;;2101963;28;20135;-45
2021/12/25 00:07:33;;;;;;;43.00;29.98;;;;;;;;;;2098097;28;20094;-44
2021/12/25 00:08:34;;;;;;;46.58;29.02;;;;;;;;;;2101659;28;20489;-44
2021/12/25 00:09:35;;;;;;;42.13;29.08;;;;;;;;;;2105324;28;20048;-44
2021/12/25 00:10:36;;;;;;;47.35;30.25;;;;;;;;;;2106609;28;20112;-45
2021/12/25 00:11:37;;;;;;;46.90;31.00;;;;;;;;;;2107065;28;20404;-44
2021/12/25 00:12:37;;;;;;;46.60;30.75;;;;;;;;;;2099362;28;20160;-45
2021/12/25 00:13:39;;;;;;;49.63;32.07;;;;;;;;;;2098098;28;20489;-45
2021/12/25 00:14:40;;;;;;;46.05;31.10;;;;;;;;;;2102094;28;20130;-45
2021/12/25 00:15:42;;;;;;;43.70;28.73;;;;;;;;;;2106308;28;20048;-45
2021/12/25 00:16:44;;;;;;;41.83;28.45;;;;;;;;;;2106310;28;20500;-46
2021/12/25 00:17:45;;;;;;;44.35;30.67;;;;;;;;;;2106941;28;20035;-44
2021/12/25 00:18:46;;;;;;;46.00;28.58;;;;;;;;;;2098101;28;20489;-44
2021/12/25 00:19:48;;;;;;;44.08;28.98;;;;;;;;;;2098035;28;20048;-45
2021/12/25 00:20:49;;;;;;;44.45;29.55;;;;;;;;;;2105879;28;20126;-44
2021/12/25 00:21:55;;;;;;;46.45;29.73;;;;;;;;;;2098137;28;20045;-44
2021/12/25 00:22:56;;;;;;;42.40;27.10;;;;;;;;;;2097797;28;20059;-45
2021/12/25 00:23:57;;;;;;;45.03;29.27;;;;;;;;;;2105257;28;20040;-44
2021/12/25 00:24:58;;;;;;;49.45;31.13;;;;;;;;;;2098367;28;20557;-47
2021/12/25 00:26:03;;;;;;;47.10;30.15;;;;;;;;;;2098850;28;20102;-47
2021/12/25 00:27:10;;;;;;;46.30;30.30;;;;;;;;;;2101773;28;20408;-46
2021/12/25 00:28:23;;;;;;;43.33;28.13;;;;;;;;;;2098092;28;20045;-47
2021/12/25 00:29:48;;;;;;;45.08;28.38;;;;;;;;;;2101617;28;20049;-46
2021/12/25 00:31:03;;;;;;;46.75;30.20;;;;;;;;;;2098212;28;20068;-46
2021/12/25 00:32:29;;;;;;;43.10;25.80;;;;;;;;;;2097090;28;20454;-45
2021/12/25 00:33:36;;;;;;;40.60;28.08;;;;;;;;;;2105834;28;20056;-45
2021/12/25 00:34:38;;;;;;;40.65;27.52;;;;;;;;;;2106457;28;20054;-45
2021/12/25 00:35:39;;;;;;;40.35;25.23;;;;;;;;;;2103753;28;20409;-46
2021/12/25 00:36:40;;;;;;;39.97;26.43;;;;;;;;;;2106267;28;20080;-48
2021/12/25 00:37:41;;;;;;;40.25;27.92;;;;;;;;;;2105882;28;20755;-46
2021/12/25 00:38:42;;;;;;;43.08;28.15;;;;;;;;;;2105416;28;20131;-46
2021/12/25 00:39:44;;;;;;;41.17;27.10;;;;;;;;;;2106422;28;20300;-45
2021/12/25 00:40:45;;;;;;;42.42;28.10;;;;;;;;;;2105715;28;20185;-46
2021/12/25 00:41:46;;;;;;;45.95;28.83;;;;;;;;;;2104914;28;20056;-47
2021/12/25 00:42:47;;;;;;;39.97;25.75;;;;;;;;;;2098033;28;20055;-48
2021/12/25 00:43:48;;;;;;;37.83;25.50;;;;;;;;;;2098771;28;20079;-46
2021/12/25 00:44:50;;;;;;;37.58;25.70;;;;;;;;;;2105124;28;20093;-45
2021/12/25 00:45:51;;;;;;;42.90;26.33;;;;;;;;;;2106317;28;20047;-47
2021/12/25 00:46:52;;;;;;;38.67;26.60;;;;;;;;;;2104253;28;20507;-45
2021/12/25 00:47:54;;;;;;;39.38;24.75;;;;;;;;;;2105355;28;20040;-45
2021/12/25 00:48:55;;;;;;;38.63;26.08;;;;;;;;;;2106311;28;20153;-45
2021/12/25 00:49:56;;;;;;;40.63;26.40;;;;;;;;;;2105117;28;20548;-45
2021/12/25 00:50:57;;;;;;;38.40;23.88;;;;;;;;;;2111983;28;20043;-46
2021/12/25 00:51:58;;;;;;;37.90;24.38;;;;;;;;;;2114626;28;20047;-46
2021/12/25 00:52:59;;;;;;;39.90;22.95;;;;;;;;;;2109861;28;20060;-46
2021/12/25 00:54:00;;;;;;;40.28;24.02;;;;;;;;;;2101539;28;20048;-45
2021/12/25 00:55:04;;;;;;;35.57;21.60;;;;;;;;;;2097741;28;20052;-45
2021/12/25 00:56:05;;;;;;;39.40;23.15;;;;;;;;;;2101258;28;20328;-47
2021/12/25 00:57:06;;;;;;;38.40;24.30;;;;;;;;;;2097929;28;20131;-45
2021/12/25 00:58:07;;;;;;;35.08;20.73;;;;;;;;;;2098080;28;20044;-45
2021/12/25 00:59:08;;;;;;;38.83;20.85;;;;;;;;;;2103545;28;20171;-46
2021/12/25 01:00:10;;;;;;;31.17;19.13;;;;;;;;;;2106273;28;20477;-46
2021/12/25 01:01:11;;;;;;;34.33;18.80;;;;;;;;;;2105491;28;20119;-48
2021/12/25 01:02:13;;;;;;;32.92;19.25;;;;;;;;;;2107658;28;20048;-45
2021/12/25 01:03:14;;;;;;;34.13;19.20;;;;;;;;;;2114608;28;20087;-45
2021/12/25 01:04:16;;;;;;;34.47;19.92;;;;;;;;;;2112348;28;20492;-45
2021/12/25 01:05:17;;;;;;;32.45;19.20;;;;;;;;;;2101483;28;20101;-45
2021/12/25 01:06:18;;;;;;;27.80;15.13;;;;;;;;;;2097759;28;20072;-46
2021/12/25 01:07:19;;;;;;;33.25;19.30;;;;;;;;;;2098590;28;20409;-45
2021/12/25 01:08:21;;;;;;;33.70;20.00;;;;;;;;;;2108653;28;20070;-46
2021/12/25 01:09:23;;;;;;;28.70;14.65;;;;;;;;;;2114628;28;20142;-46
2021/12/25 01:10:23;;;;;;;28.55;17.02;;;;;;;;;;2109886;28;20404;-47
2021/12/25 01:11:27;;;;;;;34.53;18.52;;;;;;;;;;2104720;28;20059;-46
2021/12/25 01:12:32;;;;;;;30.38;17.48;;;;;;;;;;2105977;28;20055;-45
2021/12/25 01:13:37;;;;;;;33.25;17.55;;;;;;;;;;2106141;28;20412;-46
2021/12/25 01:14:44;;;;;;;24.65;15.32;;;;;;;;;;2099301;28;20052;-45
2021/12/25 01:15:57;;;;;;;32.50;17.23;;;;;;;;;;2097860;28;20057;-48
2021/12/25 01:18:38;;;;;;;30.25;17.60;;;;;;;;;;2113580;28;20134;-46
2021/12/25 01:20:04;;;;;;;25.50;15.50;;;;;;;;;;2106012;28;20556;-46
2021/12/25 01:21:28;;;;;;;28.60;17.48;;;;;;;;;;2105933;28;20130;-47
2021/12/25 01:23:02;;;;;;;29.08;15.75;;;;;;;;;;2105909;28;20126;-46
2021/12/25 01:24:25;;;;;;;29.27;17.10;;;;;;;;;;2097525;28;20132;-46
2021/12/25 01:25:51;;;;;;;28.90;17.52;;;;;;;;;;2100701;28;20044;-46
2021/12/25 01:28:49;;;;;;;31.95;17.80;;;;;;;;;;2091238;28;20213;-46
2021/12/25 01:29:52;;;;;;;27.88;16.50;;;;;;;;;;2097420;28;20048;-46
2021/12/25 01:31:00;;;;;;;26.73;13.38;;;;;;;;;;2097990;28;20118;-45
2021/12/25 01:32:33;;;;;;;26.33;15.80;;;;;;;;;;2101119;28;20048;-46
2021/12/25 01:34:13;;;;;;;30.48;16.25;;;;;;;;;;2097639;28;20044;-45
2021/12/25 01:35:35;;;;;;;26.48;13.63;;;;;;;;;;2111599;28;20047;-46
2021/12/25 01:36:47;;;;;;;28.63;15.48;;;;;;;;;;2114229;28;20055;-45
2021/12/25 01:38:01;;;;;;;26.25;15.13;;;;;;;;;;2104553;28;20075;-46
2021/12/25 01:39:09;;;;;;;25.00;14.60;;;;;;;;;;2097594;28;20068;-48
2021/12/25 01:40:31;;;;;;;24.67;15.07;;;;;;;;;;2099942;28;20663;-46
2021/12/25 01:41:57;;;;;;;28.73;16.83;;;;;;;;;;2105805;28;20127;-46
2021/12/25 01:48:17;;;;;;;24.73;14.77;;;;;;;;;;2114260;28;20488;-46
2021/12/25 01:49:19;;;;;;;26.02;15.25;;;;;;;;;;2106124;28;20052;-47
2021/12/25 01:50:21;;;;;;;28.92;15.68;;;;;;;;;;2114153;28;20136;-46
2021/12/25 01:51:22;;;;;;;22.77;13.23;;;;;;;;;;2114300;28;20130;-46
2021/12/25 01:52:26;;;;;;;22.27;13.23;;;;;;;;;;2104923;28;20493;-45
2021/12/25 01:53:27;;;;;;;22.88;13.02;;;;;;;;;;2097635;28;20063;-50
2021/12/25 01:54:28;;;;;;;20.10;11.38;;;;;;;;;;2098648;28;20147;-46
2021/12/25 01:55:30;;;;;;;29.23;15.30;;;;;;;;;;2105549;28;20043;-46
2021/12/25 01:56:31;;;;;;;20.88;13.45;;;;;;;;;;2097489;28;20139;-48
2021/12/25 01:57:32;;;;;;;23.13;13.10;;;;;;;;;;2097246;28;20097;-46
2021/12/25 01:58:34;;;;;;;24.98;14.27;;;;;;;;;;2103716;28;20406;-47
2021/12/25 01:59:35;;;;;;;21.75;12.35;;;;;;;;;;2105980;28;20108;-46
2021/12/25 02:00:38;;;;;;;16.52;9.70;;;;;;;;;;2105316;28;20062;-46
2021/12/25 02:01:40;;;;;;;22.40;12.77;;;;;;;;;;2104138;28;20040;-46
2021/12/25 02:02:41;;;;;;;22.67;12.82;;;;;;;;;;2105880;28;20044;-47
2021/12/25 02:03:42;;;;;;;21.25;13.38;;;;;;;;;;2104062;28;20052;-49
2021/12/25 02:04:44;;;;;;;22.95;13.77;;;;;;;;;;2105398;28;20127;-48
2021/12/25 02:05:45;;;;;;;20.45;11.35;;;;;;;;;;2105762;28;20135;-49
2021/12/25 02:06:55;;;;;;;20.23;11.80;;;;;;;;;;2105459;28;20041;-50
2021/12/25 02:07:56;;;;;;;21.75;12.93;;;;;;;;;;2100825;28;20305;-49
2021/12/25 02:08:57;;;;;;;19.95;12.98;;;;;;;;;;2097309;28;20119;-51
2021/12/25 02:09:58;;;;;;;19.02;11.73;;;;;;;;;;2101576;28;20047;-55
2021/12/25 02:10:59;;;;;;;21.00;12.02;;;;;;;;;;2098850;28;20117;-54
2021/12/25 02:12:00;;;;;;;15.38;9.43;;;;;;;;;;2097419;28;20125;-50
2021/12/25 02:13:02;;;;;;;20.90;11.75;;;;;;;;;;2102036;28;20048;-53
2021/12/25 02:14:14;;;;;;;23.17;12.88;;;;;;;;;;2097545;28;20052;-53
2021/12/25 02:15:19;;;;;;;21.92;11.75;;;;;;;;;;2097296;28;20052;-54
2021/12/25 02:16:23;;;;;;;20.92;11.93;;;;;;;;;;2100807;28;20052;-55
2021/12/25 02:17:30;;;;;;;17.83;11.05;;;;;;;;;;2097312;28;20477;-52
2021/12/25 02:18:53;;;;;;;22.60;13.57;;;;;;;;;;2098186;28;20048;-54
2021/12/25 02:20:07;;;;;;;20.30;11.98;;;;;;;;;;2098098;28;20127;-54
2021/12/25 02:21:09;;;;;;;19.75;11.65;;;;;;;;;;2097368;28;20045;-54
2021/12/25 02:22:11;;;;;;;;;;;;;;;;;;2104245;28;20040;-51
2021/12/25 02:23:15;;;;;;;20.58;11.13;;;;;;;;;;2105782;28;20272;-54
2021/12/25 02:24:16;;;;;;;21.35;10.05;;;;;;;;;;2105175;28;20056;-52
2021/12/25 02:25:17;;;;;;;21.65;13.73;;;;;;;;;;2103770;28;20040;-54
2021/12/25 02:26:18;;;;;;;20.33;11.40;;;;;;;;;;2105530;28;20429;-53
2021/12/25 02:27:19;;;;;;;19.20;12.45;;;;;;;;;;2105144;28;20138;-53
2021/12/25 02:28:20;;;;;;;18.52;11.50;;;;;;;;;;2104945;28;20197;-54
2021/12/25 02:29:22;;;;;;;18.23;11.35;;;;;;;;;;2105745;28;20126;-54
2021/12/25 02:30:23;;;;;;;17.65;10.05;;;;;;;;;;2104466;28;20123;-52
2021/12/25 02:31:24;;;;;;;17.25;10.85;;;;;;;;;;2104575;28;20382;-55
2021/12/25 02:32:25;;;;;;;17.02;11.10;;;;;;;;;;2098819;28;20494;-51
2021/12/25 02:33:27;;;;;;;15.50;9.57;;;;;;;;;;2098276;28;20107;-53
2021/12/25 02:34:27;;;;;;;15.90;9.93;;;;;;;;;;2104730;28;20079;-48
2021/12/25 02:35:30;;;;;;;17.87;10.77;;;;;;;;;;2105525;28;20063;-51
2021/12/25 02:36:31;;;;;;;12.82;7.78;;;;;;;;;;2104507;28;20216;-54
2021/12/25 02:37:32;;;;;;;15.13;9.88;;;;;;;;;;2104205;28;20059;-49
2021/12/25 02:38:34;;;;;;;14.85;9.73;;;;;;;;;;2105721;28;20058;-48
2021/12/25 02:39:35;;;;;;;16.10;9.27;;;;;;;;;;2105488;28;20127;-48
2021/12/25 02:40:36;;;;;;;16.50;8.65;;;;;;;;;;2098233;28;20131;-54
2021/12/25 02:41:37;;;;;;;15.38;9.15;;;;;;;;;;2097210;28;20045;-48
2021/12/25 02:42:38;;;;;;;16.23;8.17;;;;;;;;;;2100314;28;20481;-49
2021/12/25 02:43:43;;;;;;;15.48;9.00;;;;;;;;;;2113481;28;20052;-47
2021/12/25 02:44:44;;;;;;;15.40;8.65;;;;;;;;;;2113939;28;20039;-48
2021/12/25 02:45:45;;;;;;;13.27;8.10;;;;;;;;;;2108297;28;20047;-47
2021/12/25 02:46:48;;;;;;;14.35;9.20;;;;;;;;;;2098445;28;20048;-47
2021/12/25 02:47:50;;;;;;;15.48;8.43;;;;;;;;;;2098741;28;20055;-47
2021/12/25 02:48:52;;;;;;;15.10;9.00;;;;;;;;;;2106356;28;20048;-47
2021/12/25 02:49:54;;;;;;;16.30;9.13;;;;;;;;;;2098596;28;20564;-47
2021/12/25 02:50:55;;;;;;;13.48;7.60;;;;;;;;;;2100858;28;20047;-49
2021/12/25 02:51:56;;;;;;;11.23;6.78;;;;;;;;;;2106387;28;20130;-46
2021/12/25 02:52:58;;;;;;;13.18;7.35;;;;;;;;;;2098629;28;20048;-47
2021/12/25 02:53:59;;;;;;;14.35;7.55;;;;;;;;;;2099186;28;20526;-49
2021/12/25 02:55:00;;;;;;;12.68;7.32;;;;;;;;;;2104925;28;20044;-47
2021/12/25 02:56:01;;;;;;;11.43;6.95;;;;;;;;;;2106978;28;20040;-47
2021/12/25 02:57:02;;;;;;;14.55;7.60;;;;;;;;;;2105825;28;20389;-51
2021/12/25 02:58:04;;;;;;;15.48;8.88;;;;;;;;;;2105423;28;20158;-46
2021/12/25 02:59:05;;;;;;;14.00;9.00;;;;;;;;;;2107112;28;20044;-47
2021/12/25 03:00:21;;;;;;;12.85;7.70;;;;;;;;;;2105977;28;20045;-47
2021/12/25 03:01:23;;;;;;;;;;;;;;;;;;2107213;28;20089;-48
2021/12/25 03:02:24;;;;;;;13.68;7.78;;;;;;;;;;2106903;28;19920;-48
2021/12/25 03:03:26;;;;;;;13.98;7.97;;;;;;;;;;2107841;28;20039;-49
2021/12/25 03:04:28;;;;;;;13.82;8.02;;;;;;;;;;2099670;28;20051;-46
2021/12/25 03:05:30;;;;;;;14.55;8.18;;;;;;;;;;2098563;28;20054;-48
2021/12/25 03:06:34;;;;;;;11.70;7.20;;;;;;;;;;2105922;28;20449;-47
2021/12/25 03:07:35;;;;;;;14.95;8.20;;;;;;;;;;2098529;28;20478;-48
2021/12/25 03:08:37;;;;;;;10.27;6.40;;;;;;;;;;2098573;28;20101;-48
2021/12/25 03:09:38;;;;;;;;;;;;;;;;;;2104448;28;20131;-46
2021/12/25 03:10:39;;;;;;;13.48;8.45;;;;;;;;;;2106805;28;19920;-46
2021/12/25 03:11:40;;;;;;;14.52;7.97;;;;;;;;;;2106158;28;20511;-47
2021/12/25 03:12:49;;;;;;;12.57;7.23;;;;;;;;;;2105048;28;20048;-48
2021/12/25 03:13:57;;;;;;;13.52;7.43;;;;;;;;;;2106762;28;20056;-48
2021/12/25 03:15:03;;;;;;;11.00;7.18;;;;;;;;;;2104733;28;20040;-47
2021/12/25 03:16:07;;;;;;;12.10;7.60;;;;;;;;;;2100271;28;20141;-47
2021/12/25 03:17:08;;;;;;;13.55;8.55;;;;;;;;;;2098651;28;20318;-47
2021/12/25 03:18:09;;;;;;;13.40;8.15;;;;;;;;;;2101124;28;20127;-48
2021/12/25 03:19:18;;;;;;;16.52;9.30;;;;;;;;;;2105614;28;20499;-50
2021/12/25 03:20:19;;;;;;;13.65;7.80;;;;;;;;;;2106752;28;20489;-48
2021/12/25 03:21:21;;;;;;;11.68;7.93;;;;;;;;;;2107839;28;20055;-47
2021/12/25 03:22:23;;;;;;;13.90;7.85;;;;;;;;;;2106689;28;20127;-47
2021/12/25 03:23:24;;;;;;;14.52;8.52;;;;;;;;;;2106905;28;20054;-47
2021/12/25 03:24:25;;;;;;;13.70;8.10;;;;;;;;;;2104257;28;20544;-48
2021/12/25 03:25:27;;;;;;;12.52;6.80;;;;;;;;;;2106794;28;20059;-46
2021/12/25 03:26:27;;;;;;;10.90;7.03;;;;;;;;;;2106616;28;20051;-47
2021/12/25 03:27:28;;;;;;;11.50;7.50;;;;;;;;;;2106189;28;20096;-47
2021/12/25 03:28:31;;;;;;;13.53;7.70;;;;;;;;;;2098401;28;20128;-47
2021/12/25 03:29:35;;;;;;;11.52;7.07;;;;;;;;;;2098567;28;20368;-52
2021/12/25 03:30:39;;;;;;;14.55;6.90;;;;;;;;;;2105814;28;20104;-52
2021/12/25 03:31:40;;;;;;;12.60;7.22;;;;;;;;;;2106643;28;20055;-47
2021/12/25 03:32:41;;;;;;;10.80;7.28;;;;;;;;;;2098450;28;20056;-46
2021/12/25 03:33:43;;;;;;;12.93;7.20;;;;;;;;;;2105804;28;20598;-49
2021/12/25 03:34:44;;;;;;;11.85;6.95;;;;;;;;;;2106688;28;20127;-49
2021/12/25 03:35:45;;;;;;;13.85;7.50;;;;;;;;;;2105080;28;20048;-48
2021/12/25 03:36:46;;;;;;;11.13;6.93;;;;;;;;;;2105682;28;20047;-50
2021/12/25 03:37:48;;;;;;;11.05;7.28;;;;;;;;;;2106652;28;20047;-47
2021/12/25 03:38:49;;;;;;;12.30;6.28;;;;;;;;;;2105613;28;20481;-48
2021/12/25 03:39:50;;;;;;;12.32;7.30;;;;;;;;;;2105315;28;20044;-48
2021/12/25 03:40:51;;;;;;;11.63;7.32;;;;;;;;;;2106616;28;20044;-47
2021/12/25 03:41:52;;;;;;;12.90;6.60;;;;;;;;;;2105707;28;20131;-48
2021/12/25 03:42:53;;;;;;;11.27;7.13;;;;;;;;;;2105126;28;20040;-47
2021/12/25 03:43:54;;;;;;;10.85;6.25;;;;;;;;;;2106736;28;20170;-48
2021/12/25 03:44:55;;;;;;;12.13;7.63;;;;;;;;;;2105148;28;20048;-48
2021/12/25 03:45:56;;;;;;;12.63;6.93;;;;;;;;;;2105954;28;20048;-47
2021/12/25 03:47:00;;;;;;;10.20;5.97;;;;;;;;;;2106406;28;20055;-48
2021/12/25 03:48:08;;;;;;;10.50;6.10;;;;;;;;;;2103728;28;20288;-47
2021/12/25 03:49:14;;;;;;;9.57;6.13;;;;;;;;;;2115135;28;20047;-48
2021/12/25 03:53:09;;;;;;;12.98;5.53;;;;;;;;;;2115110;28;20043;-50
2021/12/25 03:58:13;;;;;;;9.75;5.78;;;;;;;;;;2097248;28;20136;-47
2021/12/25 03:59:16;;;;;;;11.77;5.55;;;;;;;;;;2098667;28;20068;-48
2021/12/25 04:00:26;;;;;;;9.38;6.93;;;;;;;;;;2108271;28;20055;-47
2021/12/25 04:01:31;;;;;;;10.95;6.55;;;;;;;;;;2114805;28;20051;-47
2021/12/25 04:02:36;;;;;;;11.63;7.18;;;;;;;;;;2109085;28;20047;-47
2021/12/25 04:03:45;;;;;;;9.05;5.53;;;;;;;;;;2100182;28;20049;-48
2021/12/25 04:04:49;;;;;;;9.07;5.97;;;;;;;;;;2098103;28;20049;-52
2021/12/25 04:05:49;;;;;;;9.23;5.72;;;;;;;;;;2102689;28;20079;-46
2021/12/25 04:06:57;;;;;;;10.47;6.07;;;;;;;;;;2114661;28;20058;-49
2021/12/25 04:08:03;;;;;;;11.40;5.97;;;;;;;;;;2114899;28;20476;-49
2021/12/25 04:09:10;;;;;;;9.70;5.75;;;;;;;;;;2103507;28;20052;-48
2021/12/25 04:10:11;;;;;;;12.52;6.88;;;;;;;;;;2106504;28;20042;-48
2021/12/25 04:11:24;;;;;;;10.63;7.07;;;;;;;;;;2105582;28;20072;-52
2021/12/25 04:12:25;;;;;;;11.32;6.78;;;;;;;;;;2101037;28;20558;-48
2021/12/25 04:13:28;;;;;;;13.27;7.38;;;;;;;;;;2098171;28;20127;-47
2021/12/25 04:14:29;;;;;;;13.38;6.93;;;;;;;;;;2100283;28;20449;-47
2021/12/25 04:15:30;;;;;;;13.65;8.50;;;;;;;;;;2113080;28;20047;-47
2021/12/25 04:16:31;;;;;;;12.93;7.40;;;;;;;;;;2114785;28;20415;-48
2021/12/25 04:17:32;;;;;;;13.13;7.40;;;;;;;;;;2107547;28;20724;-46
2021/12/25 04:18:33;;;;;;;12.25;7.13;;;;;;;;;;2114066;28;20043;-47
2021/12/25 04:19:34;;;;;;;11.32;6.78;;;;;;;;;;2114940;28;20043;-49
2021/12/25 04:20:35;;;;;;;10.02;6.63;;;;;;;;;;2106797;28;20130;-47
2021/12/25 04:21:41;;;;;;;11.60;6.38;;;;;;;;;;2105143;28;20051;-51
2021/12/25 04:22:46;;;;;;;10.93;5.93;;;;;;;;;;2106449;28;20048;-46
2021/12/25 04:23:48;;;;;;;8.02;4.63;;;;;;;;;;2103104;28;20044;-47
2021/12/25 04:24:50;;;;;;;9.52;5.80;;;;;;;;;;2097979;28;20395;-47
2021/12/25 04:25:53;;;;;;;8.82;5.70;;;;;;;;;;2097673;28;20048;-48
2021/12/25 04:26:54;;;;;;;7.97;4.95;;;;;;;;;;2107426;28;20415;-47
2021/12/25 04:28:00;;;;;;;9.27;5.67;;;;;;;;;;2114813;28;20047;-48
2021/12/25 04:29:06;;;;;;;7.20;4.38;;;;;;;;;;2111901;28;20044;-48
2021/12/25 04:30:22;;;;;;;6.32;4.18;;;;;;;;;;2109244;28;20400;-47
2021/12/25 04:31:32;;;;;;;5.38;3.33;;;;;;;;;;2114735;28;20044;-48
2021/12/25 04:33:07;;;;;;;5.35;3.70;;;;;;;;;;2106234;28;20043;-47
2021/12/25 04:50:15;;;;;;;3.90;2.08;;;;;;;;;;2105113;28;20047;-48
2021/12/25 05:01:55;;;;;;;6.18;3.67;;;;;;;;;;2104262;28;20084;-54
2021/12/25 05:03:04;;;;;;;7.70;4.30;;;;;;;;;;2112725;28;20142;-52
2021/12/25 05:04:09;;;;;;;7.53;4.32;;;;;;;;;;2114566;28;20130;-52
2021/12/25 05:05:15;;;;;;;8.00;4.35;;;;;;;;;;2105630;28;20052;-54
2021/12/25 05:06:16;;;;;;;6.68;4.30;;;;;;;;;;2106015;28;20043;-52
2021/12/25 05:07:17;;;;;;;6.78;3.88;;;;;;;;;;2106233;28;20143;-51
2021/12/25 05:08:18;;;;;;;5.35;3.70;;;;;;;;;;2103752;28;20051;-52
2021/12/25 05:09:19;;;;;;;6.30;3.88;;;;;;;;;;2105844;28;20181;-51
2021/12/25 05:10:21;;;;;;;5.85;4.10;;;;;;;;;;2105550;28;20182;-53
2021/12/25 05:11:22;;;;;;;6.78;4.20;;;;;;;;;;2104031;28;20455;-50
2021/12/25 05:12:26;;;;;;;8.50;4.53;;;;;;;;;;2106318;28;20044;-52
2021/12/25 05:13:27;;;;;;;7.03;4.53;;;;;;;;;;2105485;28;20044;-54
2021/12/25 05:14:28;;;;;;;6.53;4.20;;;;;;;;;;2106958;28;21168;-55
2021/12/25 05:15:29;;;;;;;6.95;4.38;;;;;;;;;;2114312;28;20507;-54
2021/12/25 05:16:30;;;;;;;7.80;4.60;;;;;;;;;;2111131;28;20135;-53
2021/12/25 05:17:31;;;;;;;9.17;4.67;;;;;;;;;;2109562;28;20415;-53
2021/12/25 05:18:32;;;;;;;5.22;3.72;;;;;;;;;;2114385;28;20135;-52
2021/12/25 05:19:33;;;;;;;6.82;4.35;;;;;;;;;;2109807;28;20055;-54
2021/12/25 05:20:34;;;;;;;7.63;4.47;;;;;;;;;;2104433;28;20048;-54
2021/12/25 05:21:35;;;;;;;7.00;4.43;;;;;;;;;;2097660;28;20052;-55
2021/12/25 05:22:36;;;;;;;8.20;4.43;;;;;;;;;;2099773;28;20040;-51
2021/12/25 05:23:37;;;;;;;7.30;4.57;;;;;;;;;;2103023;28;20048;-54
2021/12/25 05:24:38;;;;;;;5.78;3.85;;;;;;;;;;2097647;28;20131;-55
2021/12/25 05:25:40;;;;;;;6.30;3.90;;;;;;;;;;2100554;28;20092;-54
2021/12/25 05:26:41;;;;;;;6.28;4.28;;;;;;;;;;2103866;28;20095;-55
2021/12/25 05:27:45;;;;;;;6.88;4.45;;;;;;;;;;2106082;28;20055;-54
2021/12/25 05:28:56;;;;;;;7.28;4.60;;;;;;;;;;2103630;28;20138;-54
2021/12/25 05:29:58;;;;;;;7.32;4.60;;;;;;;;;;2105931;28;20048;-53
2021/12/25 05:30:58;;;;;;;7.43;4.93;;;;;;;;;;2105924;28;20408;-53
2021/12/25 05:32:00;;;;;;;6.80;4.10;;;;;;;;;;2103327;28;20051;-54
2021/12/25 05:33:00;;;;;;;7.47;4.57;;;;;;;;;;2114268;28;20568;-52
2021/12/25 05:34:02;;;;;;;7.47;4.60;;;;;;;;;;2114320;28;20048;-54
2021/12/25 05:35:03;;;;;;;7.07;4.50;;;;;;;;;;2103757;28;20055;-55
2021/12/25 05:36:04;;;;;;;7.70;4.40;;;;;;;;;;2105784;28;20048;-53
2021/12/25 05:37:06;;;;;;;7.40;4.70;;;;;;;;;;2105302;28;20637;-52
2021/12/25 05:38:13;;;;;;;6.55;4.43;;;;;;;;;;2104971;28;20135;-53
2021/12/25 05:39:15;;;;;;;6.97;3.75;;;;;;;;;;2106051;28;20044;-49
2021/12/25 05:40:16;;;;;;;9.35;4.97;;;;;;;;;;2104101;28;20047;-53
2021/12/25 05:41:17;;;;;;;5.95;3.97;;;;;;;;;;2104428;28;20425;-54
2021/12/25 05:42:20;;;;;;;6.88;4.65;;;;;;;;;;2097523;28;20056;-55
2021/12/25 05:43:21;;;;;;;6.10;3.72;;;;;;;;;;2099271;28;20469;-50
2021/12/25 05:44:22;;;;;;;7.23;4.60;;;;;;;;;;2104492;28;20508;-53
2021/12/25 05:45:23;;;;;;;8.15;5.32;;;;;;;;;;2105888;28;20284;-54
2021/12/25 05:46:24;;;;;;;8.82;5.18;;;;;;;;;;2104667;28;20047;-53
2021/12/25 05:47:26;;;;;;;7.50;4.60;;;;;;;;;;2104402;28;20401;-54
2021/12/25 05:48:27;;;;;;;7.45;4.15;;;;;;;;;;2105811;28;20525;-52
2021/12/25 05:49:29;;;;;;;7.63;4.53;;;;;;;;;;2105772;28;20087;-53
2021/12/25 05:50:30;;;;;;;;;;;;;;;;;;2098952;28;20139;-53
2021/12/25 05:51:31;;;;;;;7.15;5.00;;;;;;;;;;2097390;28;19921;-51
2021/12/25 05:52:32;;;;;;;8.60;5.35;;;;;;;;;;2099670;28;20046;-50
2021/12/25 05:53:33;;;;;;;9.82;5.45;;;;;;;;;;2105639;28;20097;-54
2021/12/25 05:54:34;;;;;;;8.35;5.07;;;;;;;;;;2105876;28;20409;-52
2021/12/25 05:55:35;;;;;;;11.32;5.72;;;;;;;;;;2106635;28;20044;-52
2021/12/25 05:56:36;;;;;;;8.93;5.72;;;;;;;;;;2097923;28;20166;-51
2021/12/25 05:57:38;;;;;;;12.95;7.13;;;;;;;;;;2097580;28;20135;-50
2021/12/25 05:58:39;;;;;;;7.78;5.32;;;;;;;;;;2105281;28;20130;-51
2021/12/25 05:59:40;;;;;;;9.93;6.05;;;;;;;;;;2097551;28;20127;-49
2021/12/25 06:00:41;;;;;;;11.13;6.82;;;;;;;;;;2097381;28;20410;-49
2021/12/25 06:01:42;;;;;;;11.15;6.10;;;;;;;;;;2105048;28;20075;-53
2021/12/25 06:02:43;;;;;;;8.27;5.20;;;;;;;;;;2097406;28;20040;-49
2021/12/25 06:03:47;;;;;;;13.20;6.10;;;;;;;;;;2097222;28;20459;-48
2021/12/25 06:04:48;;;;;;;11.32;5.18;;;;;;;;;;2103677;28;20048;-48
2021/12/25 06:05:49;;;;;;;9.77;5.43;;;;;;;;;;2105898;28;20071;-49
2021/12/25 06:06:50;;;;;;;9.15;4.82;;;;;;;;;;2105237;28;20054;-48
2021/12/25 06:07:51;;;;;;;7.63;4.50;;;;;;;;;;2106038;28;20688;-47
2021/12/25 06:08:52;;;;;;;10.77;6.60;;;;;;;;;;2105653;28;20337;-49
2021/12/25 06:09:53;;;;;;;9.85;5.07;;;;;;;;;;2104811;28;20071;-49
2021/12/25 06:10:54;;;;;;;12.87;5.97;;;;;;;;;;2104507;28;20467;-50
2021/12/25 06:11:56;;;;;;;8.60;4.63;;;;;;;;;;2105687;28;20160;-50
2021/12/25 06:12:59;;;;;;;9.10;5.60;;;;;;;;;;2103777;28;20081;-49
2021/12/25 06:14:09;;;;;;;9.85;5.50;;;;;;;;;;2104621;28;20036;-49
2021/12/25 06:15:11;;;;;;;9.68;5.45;;;;;;;;;;2105684;28;20056;-49
2021/12/25 06:16:12;;;;;;;8.70;4.50;;;;;;;;;;2104344;28;20509;-50
2021/12/25 06:17:14;;;;;;;8.57;5.18;;;;;;;;;;2105527;28;20055;-47
2021/12/25 06:18:15;;;;;;;11.30;6.75;;;;;;;;;;2105695;28;20508;-54
2021/12/25 06:19:16;;;;;;;10.32;6.88;;;;;;;;;;2106549;28;20054;-53
2021/12/25 06:20:17;;;;;;;9.85;5.68;;;;;;;;;;2105630;28;20135;-54
2021/12/25 06:21:18;;;;;;;9.00;5.63;;;;;;;;;;2106279;28;20044;-51
2021/12/25 06:22:19;;;;;;;9.65;5.50;;;;;;;;;;2104946;28;20056;-54
2021/12/25 06:23:20;;;;;;;12.40;6.45;;;;;;;;;;2107123;28;20398;-54
2021/12/25 06:24:22;;;;;;;10.30;5.72;;;;;;;;;;2107250;28;20048;-50
2021/12/25 06:25:24;;;;;;;13.25;6.82;;;;;;;;;;2107348;28;20126;-54
2021/12/25 06:26:25;;;;;;;11.40;6.47;;;;;;;;;;2098895;28;20044;-54
2021/12/25 06:27:26;;;;;;;10.70;6.45;;;;;;;;;;2098595;28;20139;-55
2021/12/25 06:28:27;;;;;;;11.13;6.28;;;;;;;;;;2106932;28;20138;-49
2021/12/25 06:29:28;;;;;;;9.73;5.95;;;;;;;;;;2115677;28;20052;-52
2021/12/25 06:30:29;;;;;;;10.88;5.88;;;;;;;;;;2114611;28;20051;-54
2021/12/25 06:31:30;;;;;;;10.57;5.82;;;;;;;;;;2105187;28;20374;-49
2021/12/25 06:32:31;;;;;;;16.92;6.95;;;;;;;;;;2099307;28;20041;-48
2021/12/25 06:33:33;;;;;;;12.18;6.72;;;;;;;;;;2099521;28;20127;-49
2021/12/25 06:34:34;;;;;;;11.20;6.25;;;;;;;;;;2107815;28;20047;-48
2021/12/25 06:35:35;;;;;;;10.77;5.93;;;;;;;;;;2115070;28;20054;-50
2021/12/25 06:36:35;;;;;;;11.13;4.97;;;;;;;;;;2105955;28;20477;-47
2021/12/25 06:37:37;;;;;;;11.13;5.87;;;;;;;;;;2110499;28;20059;-49
2021/12/25 06:38:40;;;;;;;14.05;6.45;;;;;;;;;;2115587;28;20058;-48
2021/12/25 06:39:41;;;;;;;13.63;5.28;;;;;;;;;;2110663;28;20056;-48
2021/12/25 06:40:42;;;;;;;13.85;7.03;;;;;;;;;;2112150;28;20043;-47
2021/12/25 06:41:44;;;;;;;18.40;7.50;;;;;;;;;;2115422;28;20044;-48
2021/12/25 06:42:45;;;;;;;15.02;5.28;;;;;;;;;;2110693;28;20492;-48
2021/12/25 06:43:46;;;;;;;20.10;6.28;;;;;;;;;;2103256;28;20555;-49
2021/12/25 06:44:47;;;;;;;22.50;7.53;;;;;;;;;;2098762;28;20135;-48
2021/12/25 06:45:48;;;;;;;12.00;5.35;;;;;;;;;;2102092;28;20048;-48
2021/12/25 06:46:49;;;;;;;9.98;4.90;;;;;;;;;;2105593;28;20278;-49
2021/12/25 06:47:51;;;;;;;10.63;6.10;;;;;;;;;;2106963;28;20119;-48
2021/12/25 06:48:51;;;;;;;7.97;4.97;;;;;;;;;;2107486;28;20078;-50
2021/12/25 06:49:52;;;;;;;11.27;6.00;;;;;;;;;;2100567;28;20048;-50
2021/12/25 06:50:53;;;;;;;14.70;7.18;;;;;;;;;;2098730;28;20139;-49
2021/12/25 06:51:54;;;;;;;9.82;5.80;;;;;;;;;;2102051;28;20097;-50
2021/12/25 06:52:56;;;;;;;30.50;7.97;;;;;;;;;;2106929;28;20052;-50
2021/12/25 06:53:57;;;;;;;11.35;6.35;;;;;;;;;;2106975;28;20284;-48
2021/12/25 06:54:58;;;;;;;12.18;7.35;;;;;;;;;;2104697;28;20040;-50
2021/12/25 06:55:59;;;;;;;21.55;8.15;;;;;;;;;;2106799;28;20054;-48